createdAt,value
2018-02-17T00:00:41.138Z,99.99
2018-02-17T00:01:50.594Z,99.99
2018-02-17T00:03:00.597Z,99.99
2018-02-17T00:04:10.578Z,99.99
2018-02-17T00:05:20.062Z,99.99
2018-02-17T00:06:29.822Z,99.99
2018-02-17T00:07:39.617Z,99.99
2018-02-17T00:08:49.393Z,99.99
2018-02-17T00:09:58.897Z,99.99
2018-02-17T00:11:08.897Z,99.99
2018-02-17T00:12:18.899Z,99.99
2018-02-17T00:13:28.930Z,99.99
2018-02-17T00:14:38.927Z,99.99
2018-02-17T00:15:48.660Z,99.99
2018-02-17T00:16:58.386Z,99.99
2018-02-17T00:18:08.108Z,99.99
2018-02-17T00:19:18.104Z,99.99
2018-02-17T00:20:27.835Z,99.99
2018-02-17T00:21:37.559Z,99.99
2018-02-17T00:22:47.273Z,99.99
2018-02-17T00:23:56.993Z,99.99
2018-02-17T00:25:06.450Z,99.99
2018-02-17T00:26:16.166Z,99.99
2018-02-17T00:27:25.629Z,99.99
2018-02-17T00:28:35.359Z,99.99
2018-02-17T00:29:45.347Z,99.99
2018-02-17T00:30:54.547Z,99.99
2018-02-17T00:32:04.541Z,99.99
2018-02-17T00:33:14.344Z,99.99
2018-02-17T00:34:24.333Z,99.99
2018-02-17T00:35:34.322Z,99.99
2018-02-17T00:36:44.045Z,99.99
2018-02-17T00:37:53.262Z,99.99
2018-02-17T00:39:02.717Z,99.99
2018-02-17T00:40:12.432Z,99.99
2018-02-17T00:41:21.908Z,99.99
2018-02-17T00:42:31.630Z,99.99
2018-02-17T00:43:41.547Z,99.99
2018-02-17T00:44:51.573Z,99.99
2018-02-17T00:46:01.686Z,99.99
2018-02-17T00:47:11.257Z,99.99
2018-02-17T00:48:21.317Z,99.99
2018-02-17T00:49:31.032Z,99.99
2018-02-17T00:50:40.831Z,99.99
2018-02-17T00:51:50.358Z,99.99
2018-02-17T00:53:00.346Z,99.99
2018-02-17T00:54:09.553Z,99.99
2018-02-17T00:55:18.762Z,99.99
2018-02-17T00:56:28.259Z,99.99
2018-02-17T00:57:38.399Z,99.99
2018-02-17T00:58:48.145Z,99.99
2018-02-17T00:59:57.877Z,99.99
2018-02-17T01:01:07.597Z,99.99
2018-02-17T01:02:17.582Z,99.99
2018-02-17T01:03:27.570Z,99.99
2018-02-17T01:04:37.304Z,99.99
2018-02-17T01:05:47.286Z,99.99
2018-02-17T01:06:56.736Z,99.99
2018-02-17T01:08:06.466Z,99.99
2018-02-17T01:09:16.229Z,99.99
2018-02-17T01:10:25.687Z,99.99
2018-02-17T01:11:35.140Z,99.99
2018-02-17T01:12:44.859Z,99.99
2018-02-17T01:13:54.309Z,99.99
2018-02-17T01:15:04.291Z,99.99
2018-02-17T01:16:14.016Z,99.99
2018-02-17T01:17:23.737Z,99.99
2018-02-17T01:18:33.463Z,99.99
2018-02-17T01:19:42.918Z,99.99
2018-02-17T01:20:52.897Z,99.99
2018-02-17T01:22:02.612Z,99.99
2018-02-17T01:23:12.085Z,99.99
2018-02-17T01:24:21.582Z,99.99
2018-02-17T01:25:31.040Z,99.99
2018-02-17T01:26:40.758Z,99.99
2018-02-17T01:27:50.749Z,99.99
2018-02-17T01:29:00.734Z,99.99
2018-02-17T01:30:10.720Z,99.99
2018-02-17T01:31:20.717Z,99.99
2018-02-17T01:32:30.431Z,99.99
2018-02-17T01:33:39.875Z,99.99
2018-02-17T01:34:49.324Z,99.99
2018-02-17T01:35:59.302Z,99.99
2018-02-17T01:37:08.755Z,99.99
2018-02-17T01:38:18.209Z,99.99
2018-02-17T01:39:27.925Z,99.99
2018-02-17T01:40:37.642Z,99.99
2018-02-17T01:41:47.357Z,99.99
2018-02-17T01:42:57.068Z,99.99
2018-02-17T01:44:07.063Z,99.99
2018-02-17T01:45:16.518Z,99.99
2018-02-17T01:46:26.541Z,99.99
2018-02-17T01:47:36.524Z,99.99
2018-02-17T01:48:45.983Z,99.99
2018-02-17T01:49:55.701Z,99.99
2018-02-17T01:51:05.690Z,99.99
2018-02-17T01:52:14.875Z,99.99
2018-02-17T01:53:24.857Z,99.99
2018-02-17T01:54:34.572Z,99.99
2018-02-17T01:55:44.282Z,99.99
2018-02-17T01:56:53.731Z,99.99
2018-02-17T01:58:03.187Z,99.99
2018-02-17T01:59:13.181Z,99.99
2018-02-17T02:00:23.164Z,99.99
2018-02-17T02:01:33.161Z,99.99
2018-02-17T02:02:42.878Z,99.99
2018-02-17T02:03:52.595Z,99.99
2018-02-17T02:05:01.782Z,99.99
2018-02-17T02:06:11.235Z,99.99
2018-02-17T02:07:20.955Z,99.99
2018-02-17T02:08:30.142Z,99.99
2018-02-17T02:09:40.177Z,99.99
2018-02-17T02:10:49.630Z,99.99
2018-02-17T02:11:59.626Z,99.99
2018-02-17T02:13:09.614Z,99.99
2018-02-17T02:14:19.338Z,99.99
2018-02-17T02:15:28.790Z,99.99
2018-02-17T02:16:38.071Z,99.99
2018-02-17T02:17:47.844Z,99.99
2018-02-17T02:18:57.565Z,99.99
2018-02-17T02:20:07.547Z,99.99
2018-02-17T02:21:17.533Z,99.99
2018-02-17T02:22:26.723Z,99.99
2018-02-17T02:23:36.707Z,99.99
2018-02-17T02:24:46.168Z,99.99
2018-02-17T02:25:55.619Z,99.99
2018-02-17T02:27:05.602Z,99.99
2018-02-17T02:28:15.323Z,99.99
2018-02-17T02:29:25.046Z,99.99
2018-02-17T02:30:34.764Z,99.99
2018-02-17T02:31:44.480Z,99.99
2018-02-17T02:32:54.215Z,99.99
2018-02-17T02:34:04.206Z,99.99
2018-02-17T02:35:13.936Z,99.99
2018-02-17T02:36:23.939Z,99.99
2018-02-17T02:37:33.776Z,99.99
2018-02-17T02:38:43.520Z,99.99
2018-02-17T02:39:53.534Z,99.99
2018-02-17T02:41:03.029Z,99.99
2018-02-17T02:42:12.513Z,99.99
2018-02-17T02:43:22.551Z,99.99
2018-02-17T02:44:32.301Z,99.99
2018-02-17T02:45:42.101Z,99.99
2018-02-17T02:46:52.140Z,99.99
2018-02-17T02:48:01.641Z,99.99
2018-02-17T02:49:11.400Z,99.99
2018-02-17T02:50:21.152Z,99.99
2018-02-17T02:51:30.926Z,99.99
2018-02-17T02:52:40.730Z,99.99
2018-02-17T02:53:50.522Z,99.99
2018-02-17T02:55:00.296Z,99.99
2018-02-17T02:56:09.851Z,99.99
2018-02-17T02:57:19.103Z,99.99
2018-02-17T02:58:28.854Z,99.99
2018-02-17T02:59:38.860Z,99.99
2018-02-17T03:00:48.887Z,99.99
2018-02-17T03:01:58.357Z,99.99
2018-02-17T03:03:08.109Z,99.99
2018-02-17T03:04:17.854Z,99.99
2018-02-17T03:05:27.053Z,99.99
2018-02-17T03:06:36.840Z,99.99
2018-02-17T03:07:46.047Z,99.99
2018-02-17T03:08:56.053Z,99.99
2018-02-17T03:10:05.869Z,99.99
2018-02-17T03:11:15.346Z,99.99
2018-02-17T03:12:25.412Z,99.99
2018-02-17T03:13:35.168Z,99.99
2018-02-17T03:14:44.905Z,99.99
2018-02-17T03:15:55.018Z,99.99
2018-02-17T03:17:04.772Z,99.99
2018-02-17T03:18:14.516Z,99.99
2018-02-17T03:19:24.050Z,99.99
2018-02-17T03:20:33.531Z,99.99
2018-02-17T03:21:43.285Z,99.99
2018-02-17T03:22:53.344Z,99.99
2018-02-17T03:24:02.827Z,99.99
2018-02-17T03:25:12.852Z,99.99
2018-02-17T03:26:22.864Z,99.99
2018-02-17T03:27:32.884Z,99.99
2018-02-17T03:28:42.894Z,99.99
2018-02-17T03:29:52.653Z,99.99
2018-02-17T03:31:02.498Z,99.99
2018-02-17T03:32:11.990Z,99.99
2018-02-17T03:33:21.750Z,99.99
2018-02-17T03:34:30.968Z,99.99
2018-02-17T03:35:40.449Z,99.99
2018-02-17T03:36:49.976Z,99.99
2018-02-17T03:37:59.742Z,99.99
2018-02-17T03:39:09.492Z,99.99
2018-02-17T03:40:19.285Z,99.99
2018-02-17T03:41:28.554Z,99.99
2018-02-17T03:42:38.695Z,99.99
2018-02-17T03:43:47.960Z,99.99
2018-02-17T03:44:57.977Z,99.99
2018-02-17T03:46:08.006Z,99.99
2018-02-17T03:47:18.027Z,99.99
2018-02-17T03:48:27.789Z,99.99
2018-02-17T03:49:37.806Z,99.99
2018-02-17T03:50:47.821Z,99.99
2018-02-17T03:51:57.564Z,99.99
2018-02-17T03:53:07.320Z,99.99
2018-02-17T03:54:16.574Z,99.99
2018-02-17T03:55:26.053Z,99.99
2018-02-17T03:56:36.067Z,99.99
2018-02-17T03:57:45.547Z,99.99
2018-02-17T03:58:55.294Z,99.99
2018-02-17T04:00:04.522Z,99.99
2018-02-17T04:01:13.999Z,99.99
2018-02-17T04:02:24.010Z,99.99
2018-02-17T04:03:33.761Z,99.99
2018-02-17T04:04:43.806Z,99.99
2018-02-17T04:05:53.860Z,99.99
2018-02-17T04:07:03.378Z,99.99
2018-02-17T04:08:12.598Z,99.99
2018-02-17T04:09:22.078Z,99.99
2018-02-17T04:10:31.297Z,99.99
2018-02-17T04:11:41.077Z,99.99
2018-02-17T04:12:50.555Z,99.99
2018-02-17T04:14:00.308Z,99.99
2018-02-17T04:15:09.782Z,99.99
2018-02-17T04:16:19.795Z,99.99
2018-02-17T04:17:29.817Z,99.99
2018-02-17T04:18:39.296Z,99.99
2018-02-17T04:19:48.790Z,99.99
2018-02-17T04:20:58.268Z,99.99
2018-02-17T04:22:08.038Z,99.99
2018-02-17T04:23:17.554Z,99.99
2018-02-17T04:24:27.040Z,99.99
2018-02-17T04:25:36.510Z,99.99
2018-02-17T04:26:45.985Z,99.99
2018-02-17T04:27:55.731Z,99.99
2018-02-17T04:29:05.210Z,99.99
2018-02-17T04:30:14.953Z,99.99
2018-02-17T04:31:24.696Z,99.99
2018-02-17T04:32:34.171Z,99.99
2018-02-17T04:33:43.637Z,99.99
2018-02-17T04:34:53.385Z,99.99
2018-02-17T04:36:02.862Z,99.99
2018-02-17T04:37:12.925Z,99.99
2018-02-17T04:38:22.411Z,99.99
2018-02-17T04:39:32.434Z,99.99
2018-02-17T04:40:41.903Z,99.99
2018-02-17T04:41:51.920Z,99.99
2018-02-17T04:43:01.989Z,99.99
2018-02-17T04:44:11.461Z,99.99
2018-02-17T04:45:21.206Z,99.99
2018-02-17T04:46:30.418Z,99.99
2018-02-17T04:47:40.176Z,99.99
2018-02-17T04:48:49.931Z,99.99
2018-02-17T04:49:59.413Z,99.99
2018-02-17T04:51:08.895Z,99.99
2018-02-17T04:52:18.906Z,99.99
2018-02-17T04:53:28.909Z,99.99
2018-02-17T04:54:38.386Z,99.99
2018-02-17T04:55:47.862Z,99.99
2018-02-17T04:56:57.605Z,99.99
2018-02-17T04:58:06.828Z,99.99
2018-02-17T04:59:16.311Z,99.99
2018-02-17T05:00:26.060Z,99.99
2018-02-17T05:01:35.796Z,99.99
2018-02-17T05:02:45.812Z,99.99
2018-02-17T05:03:55.817Z,99.99
2018-02-17T05:05:05.558Z,99.99
2018-02-17T05:06:15.032Z,99.99
2018-02-17T05:07:25.038Z,99.99
2018-02-17T05:08:35.046Z,99.99
2018-02-17T05:09:45.065Z,99.99
2018-02-17T05:10:54.809Z,99.99
2018-02-17T05:12:04.015Z,99.99
2018-02-17T05:13:13.237Z,99.99
2018-02-17T05:14:22.997Z,99.99
2018-02-17T05:15:32.479Z,99.99
2018-02-17T05:16:42.494Z,99.99
2018-02-17T05:17:52.503Z,99.99
2018-02-17T05:19:02.241Z,99.99
2018-02-17T05:20:11.705Z,99.99
2018-02-17T05:21:21.437Z,99.99
2018-02-17T05:22:31.184Z,99.99
2018-02-17T05:23:40.936Z,99.99
2018-02-17T05:24:51.110Z,99.99
2018-02-17T05:26:00.658Z,99.99
2018-02-17T05:27:10.420Z,99.99
2018-02-17T05:28:19.360Z,99.99
2018-02-17T05:29:28.032Z,99.99
2018-02-17T05:30:37.505Z,99.99
2018-02-17T05:31:46.979Z,99.99
2018-02-17T05:32:56.464Z,99.99
2018-02-17T05:34:05.945Z,99.99
2018-02-17T05:35:15.428Z,99.99
2018-02-17T05:36:25.168Z,99.99
2018-02-17T05:37:34.635Z,99.81
2018-02-17T05:38:44.653Z,99.81
2018-02-17T05:39:54.673Z,99.62
2018-02-17T05:41:04.170Z,99.99
2018-02-17T05:42:13.372Z,99.71
2018-02-17T05:43:23.379Z,99.99
2018-02-17T05:44:32.866Z,99.99
2018-02-17T05:45:42.892Z,99.99
2018-02-17T05:46:52.372Z,99.99
2018-02-17T05:48:02.394Z,99.62
2018-02-17T05:49:11.929Z,99.99
2018-02-17T05:50:21.640Z,99.99
2018-02-17T05:51:31.404Z,99.99
2018-02-17T05:52:41.411Z,99.99
2018-02-17T05:53:51.416Z,99.99
2018-02-17T05:55:01.172Z,99.99
2018-02-17T05:56:11.238Z,99.99
2018-02-17T05:57:20.726Z,99.99
2018-02-17T05:58:30.757Z,99.99
2018-02-17T05:59:40.243Z,99.99
2018-02-17T06:00:50.259Z,99.99
2018-02-17T06:02:00.286Z,99.99
2018-02-17T06:03:10.043Z,99.99
2018-02-17T06:04:20.066Z,99.99
2018-02-17T06:05:29.605Z,99.99
2018-02-17T06:06:39.624Z,99.99
2018-02-17T06:07:49.370Z,99.99
2018-02-17T06:08:58.581Z,99.99
2018-02-17T06:10:08.331Z,99.99
2018-02-17T06:11:18.074Z,99.99
2018-02-17T06:12:27.549Z,99.99
2018-02-17T06:13:37.034Z,99.99
2018-02-17T06:14:47.076Z,99.99
2018-02-17T06:15:56.831Z,99.99
2018-02-17T06:17:05.831Z,99.99
2018-02-17T06:18:15.590Z,99.99
2018-02-17T06:19:25.595Z,99.81
2018-02-17T06:20:35.346Z,99.99
2018-02-17T06:21:45.085Z,99.99
2018-02-17T06:22:54.843Z,99.71
2018-02-17T06:24:04.862Z,99.99
2018-02-17T06:25:14.608Z,99.9
2018-02-17T06:26:24.085Z,99.99
2018-02-17T06:27:33.564Z,99.99
2018-02-17T06:28:42.774Z,99.99
2018-02-17T06:29:52.248Z,99.99
2018-02-17T06:31:02.267Z,99.99
2018-02-17T06:32:12.014Z,99.99
2018-02-17T06:33:21.498Z,99.43
2018-02-17T06:34:31.257Z,99.99
2018-02-17T06:35:40.730Z,99.52
2018-02-17T06:36:50.740Z,99.99
2018-02-17T06:38:00.756Z,99.99
2018-02-17T06:39:10.233Z,99.81
2018-02-17T06:40:19.476Z,99.99
2018-02-17T06:41:28.958Z,99.99
2018-02-17T06:42:38.983Z,99.52
2018-02-17T06:43:48.727Z,99.62
2018-02-17T06:44:57.944Z,99.81
2018-02-17T06:46:07.421Z,99.81
2018-02-17T06:47:16.633Z,99.71
2018-02-17T06:48:26.374Z,99.71
2018-02-17T06:49:35.846Z,99.81
2018-02-17T06:50:45.327Z,99.71
2018-02-17T06:51:55.349Z,99.99
2018-02-17T06:53:04.824Z,99.99
2018-02-17T06:54:14.560Z,99.99
2018-02-17T06:55:24.308Z,99.99
2018-02-17T06:56:33.789Z,99.99
2018-02-17T06:57:43.540Z,99.99
2018-02-17T06:58:53.029Z,99.99
2018-02-17T07:00:02.769Z,99.99
2018-02-17T07:01:11.711Z,99.99
2018-02-17T07:02:20.656Z,99.99
2018-02-17T07:03:30.667Z,99.99
2018-02-17T07:04:39.339Z,99.99
2018-02-17T07:05:49.066Z,99.99
2018-02-17T07:06:58.544Z,99.99
2018-02-17T07:08:08.556Z,99.99
2018-02-17T07:09:18.580Z,99.99
2018-02-17T07:10:28.323Z,99.99
2018-02-17T07:11:38.069Z,99.99
2018-02-17T07:12:48.083Z,99.99
2018-02-17T07:13:57.825Z,99.99
2018-02-17T07:15:07.644Z,99.99
2018-02-17T07:16:16.911Z,99.99
2018-02-17T07:17:26.942Z,99.99
2018-02-17T07:18:36.158Z,99.99
2018-02-17T07:19:45.907Z,99.99
2018-02-17T07:20:55.683Z,99.99
2018-02-17T07:22:04.933Z,99.99
2018-02-17T07:23:13.878Z,99.99
2018-02-17T07:24:23.667Z,99.99
2018-02-17T07:25:33.773Z,99.99
2018-02-17T07:26:42.993Z,99.99
2018-02-17T07:27:52.768Z,99.81
2018-02-17T07:29:02.571Z,99.99
2018-02-17T07:30:12.064Z,99.99
2018-02-17T07:31:21.824Z,99.99
2018-02-17T07:32:31.418Z,99.81
2018-02-17T07:33:41.461Z,99.43
2018-02-17T07:34:51.238Z,99.99
2018-02-17T07:36:01.289Z,99.99
2018-02-17T07:37:10.778Z,99.99
2018-02-17T07:38:20.808Z,99.99
2018-02-17T07:39:30.546Z,99.52
2018-02-17T07:40:40.305Z,99.99
2018-02-17T07:41:49.548Z,99.71
2018-02-17T07:42:59.031Z,99.99
2018-02-17T07:44:08.777Z,99.99
2018-02-17T07:45:18.534Z,99.77
2018-02-17T07:46:28.549Z,99.39
2018-02-17T07:47:38.571Z,99.9
2018-02-17T07:48:48.612Z,99.99
2018-02-17T07:49:58.383Z,99.48
2018-02-17T07:51:07.611Z,99.58
2018-02-17T07:52:16.859Z,99.77
2018-02-17T07:53:26.334Z,99.2
2018-02-17T07:54:36.360Z,98.72
2018-02-17T07:55:46.369Z,98.16
2018-02-17T07:56:55.938Z,98.35
2018-02-17T07:58:06.079Z,98.54
2018-02-17T07:59:16.136Z,97.87
2018-02-17T08:00:26.122Z,98.16
2018-02-17T08:01:36.183Z,97.59
2018-02-17T08:02:45.948Z,97.21
2018-02-17T08:03:55.711Z,97.49
2018-02-17T08:05:04.934Z,96.83
2018-02-17T08:06:14.714Z,96.73
2018-02-17T08:07:24.457Z,96.55
2018-02-17T08:08:34.223Z,96.55
2018-02-17T08:09:44.001Z,96.64
2018-02-17T08:10:53.873Z,96.36
2018-02-17T08:12:03.933Z,96.36
2018-02-17T08:13:13.686Z,96.36
2018-02-17T08:14:23.171Z,96.26
2018-02-17T08:15:32.934Z,96.03
2018-02-17T08:16:42.692Z,96.31
2018-02-17T08:17:51.633Z,96.12
2018-02-17T08:19:01.408Z,95.36
2018-02-17T08:20:10.888Z,95.36
2018-02-17T08:21:20.364Z,95.36
2018-02-17T08:22:30.118Z,94.6
2018-02-17T08:23:39.605Z,94.32
2018-02-17T08:24:49.400Z,93.84
2018-02-17T08:25:58.614Z,93.65
2018-02-17T08:27:08.348Z,93.65
2018-02-17T08:28:18.377Z,93.65
2018-02-17T08:29:28.390Z,93.46
2018-02-17T08:30:38.160Z,93.65
2018-02-17T08:31:47.957Z,93.84
2018-02-17T08:32:57.703Z,93.27
2018-02-17T08:34:07.184Z,93.46
2018-02-17T08:35:16.451Z,93.08
2018-02-17T08:36:26.203Z,93.18
2018-02-17T08:37:35.688Z,92.99
2018-02-17T08:38:45.453Z,93.18
2018-02-17T08:39:55.202Z,92.9
2018-02-17T08:41:04.938Z,92.9
2018-02-17T08:42:14.471Z,92.8
2018-02-17T08:43:24.280Z,92.61
2018-02-17T08:44:33.493Z,92.76
2018-02-17T08:45:42.716Z,92.28
2018-02-17T08:46:52.732Z,91.61
2018-02-17T08:48:02.214Z,91.99
2018-02-17T08:49:11.968Z,91.52
2018-02-17T08:50:21.719Z,91.61
2018-02-17T08:51:31.473Z,91.61
2018-02-17T08:52:41.480Z,91.52
2018-02-17T08:53:51.511Z,90.95
2018-02-17T08:55:01.530Z,90.76
2018-02-17T08:56:11.290Z,90.57
2018-02-17T08:57:20.778Z,90.9
2018-02-17T08:58:30.808Z,89.72
2018-02-17T08:59:40.556Z,89.95
2018-02-17T09:00:50.297Z,89.67
2018-02-17T09:01:59.502Z,89.86
2018-02-17T09:03:08.996Z,89.95
2018-02-17T09:04:18.763Z,89.67
2018-02-17T09:05:28.784Z,89.29
2018-02-17T09:06:38.539Z,89.48
2018-02-17T09:07:47.818Z,89
2018-02-17T09:08:57.363Z,88.34
2018-02-17T09:10:07.109Z,87.77
2018-02-17T09:11:16.909Z,87.58
2018-02-17T09:12:26.400Z,87.68
2018-02-17T09:13:36.135Z,87.87
2018-02-17T09:14:45.902Z,87.77
2018-02-17T09:15:55.925Z,87.49
2018-02-17T09:17:05.409Z,86.82
2018-02-17T09:18:15.168Z,87.2
2018-02-17T09:19:25.216Z,86.49
2018-02-17T09:20:34.973Z,85.53
2018-02-17T09:21:44.769Z,85.21
2018-02-17T09:22:54.780Z,84.97
2018-02-17T09:24:04.268Z,85.49
2018-02-17T09:25:13.760Z,85.63
2018-02-17T09:26:23.520Z,85.25
2018-02-17T09:27:33.354Z,85.25
2018-02-17T09:28:42.842Z,85.25
2018-02-17T09:29:52.594Z,84.97
2018-02-17T09:31:01.813Z,84.97
2018-02-17T09:32:11.846Z,84.87
2018-02-17T09:33:21.333Z,84.78
2018-02-17T09:34:31.360Z,84.87
2018-02-17T09:35:40.853Z,84.3
2018-02-17T09:36:50.612Z,83.83
2018-02-17T09:38:00.378Z,83.64
2018-02-17T09:39:09.863Z,83.54
2018-02-17T09:40:19.080Z,83.3
2018-02-17T09:41:28.573Z,83.01
2018-02-17T09:42:38.326Z,82.07
2018-02-17T09:43:47.804Z,81.68
2018-02-17T09:44:57.828Z,81.78
2018-02-17T09:46:07.632Z,82.07
2018-02-17T09:47:17.652Z,81.12
2018-02-17T09:48:27.407Z,81.21
2018-02-17T09:49:37.425Z,81.21
2018-02-17T09:50:46.633Z,81.3
2018-02-17T09:51:56.384Z,81.59
2018-02-17T09:53:05.594Z,81.4
2018-02-17T09:54:15.086Z,81.49
2018-02-17T09:55:24.829Z,81.12
2018-02-17T09:56:34.850Z,79.88
2018-02-17T09:57:44.628Z,79.88
2018-02-17T09:58:54.114Z,80.45
2018-02-17T10:00:03.878Z,80.55
2018-02-17T10:01:13.899Z,81.02
2018-02-17T10:02:23.912Z,80.93
2018-02-17T10:03:33.666Z,80.64
2018-02-17T10:04:43.711Z,80.45
2018-02-17T10:05:53.736Z,80.35
2018-02-17T10:07:03.496Z,80.45
2018-02-17T10:08:13.260Z,79.41
2018-02-17T10:09:23.011Z,79.03
2018-02-17T10:10:33.038Z,79.22
2018-02-17T10:11:42.295Z,79.31
2018-02-17T10:12:52.102Z,78.88
2018-02-17T10:14:02.131Z,78.69
2018-02-17T10:15:11.872Z,78.59
2018-02-17T10:16:21.645Z,78.69
2018-02-17T10:17:31.130Z,78.78
2018-02-17T10:18:40.882Z,78.97
2018-02-17T10:19:50.634Z,78.11
2018-02-17T10:21:00.657Z,78.59
2018-02-17T10:22:10.420Z,78.21
2018-02-17T10:23:19.917Z,77.92
2018-02-17T10:24:29.970Z,78.02
2018-02-17T10:25:39.933Z,78.4
2018-02-17T10:26:49.976Z,78.21
2018-02-17T10:28:00.253Z,77.64
2018-02-17T10:29:10.028Z,77.64
2018-02-17T10:30:19.158Z,77.64
2018-02-17T10:31:29.014Z,77.55
2018-02-17T10:32:39.039Z,77.55
2018-02-17T10:33:48.530Z,76.78
2018-02-17T10:34:58.556Z,77.36
2018-02-17T10:36:08.310Z,77.26
2018-02-17T10:37:17.795Z,77.26
2018-02-17T10:38:27.884Z,77.36
2018-02-17T10:39:37.627Z,77.07
2018-02-17T10:40:47.387Z,76.31
2018-02-17T10:41:56.872Z,75.59
2018-02-17T10:43:06.417Z,75.68
2018-02-17T10:44:16.166Z,75.68
2018-02-17T10:45:25.923Z,75.11
2018-02-17T10:46:35.681Z,74.73
2018-02-17T10:47:45.440Z,74.44
2018-02-17T10:48:56.136Z,74.44
2018-02-17T10:50:06.376Z,74.44
2018-02-17T10:51:17.270Z,74.92
2018-02-17T10:52:27.468Z,74.82
2018-02-17T10:53:36.987Z,74.58
2018-02-17T10:54:46.677Z,74.77
2018-02-17T10:55:57.217Z,74.29
2018-02-17T10:57:07.930Z,73.91
2018-02-17T10:58:18.023Z,73.15
2018-02-17T10:59:28.048Z,72.96
2018-02-17T11:00:37.845Z,72.9
2018-02-17T11:01:47.952Z,72.05
2018-02-17T11:02:57.717Z,71.95
2018-02-17T11:04:07.194Z,71.47
2018-02-17T11:05:17.257Z,71.19
2018-02-17T11:06:27.288Z,70.62
2018-02-17T11:07:36.790Z,69.85
2018-02-17T11:08:46.830Z,69.7
2018-02-17T11:09:56.864Z,69.7
2018-02-17T11:11:06.375Z,69.04
2018-02-17T11:12:16.234Z,68.46
2018-02-17T11:13:26.329Z,68.56
2018-02-17T11:14:35.856Z,67.89
2018-02-17T11:15:45.966Z,67.8
2018-02-17T11:16:55.990Z,67.8
2018-02-17T11:18:05.805Z,67.41
2018-02-17T11:19:15.589Z,66.66
2018-02-17T11:20:25.689Z,66.88
2018-02-17T11:21:35.448Z,66.66
2018-02-17T11:22:44.934Z,66.18
2018-02-17T11:23:55.004Z,66.31
2018-02-17T11:25:04.763Z,65.51
2018-02-17T11:26:14.528Z,65.55
2018-02-17T11:27:24.100Z,65.26
2018-02-17T11:28:33.592Z,65.03
2018-02-17T11:29:43.343Z,65.16
2018-02-17T11:30:52.861Z,65.13
2018-02-17T11:32:02.900Z,65.03
2018-02-17T11:33:12.973Z,65.26
2018-02-17T11:34:22.568Z,64.02
2018-02-17T11:35:32.980Z,64.4
2018-02-17T11:36:42.717Z,64.12
2018-02-17T11:37:52.532Z,63.92
2018-02-17T11:39:02.288Z,63.92
2018-02-17T11:40:12.035Z,63.64
2018-02-17T11:41:21.782Z,63.83
2018-02-17T11:42:31.800Z,63.54
2018-02-17T11:43:41.279Z,62.97
2018-02-17T11:44:51.389Z,63.83
2018-02-17T11:46:01.187Z,63.92
2018-02-17T11:47:10.715Z,64.59
2018-02-17T11:48:19.930Z,63.64
2018-02-17T11:49:29.452Z,63.83
2018-02-17T11:50:38.977Z,63.35
2018-02-17T11:51:47.946Z,63.54
2018-02-17T11:52:58.056Z,63.17
2018-02-17T11:54:07.817Z,63.26
2018-02-17T11:55:17.853Z,63.64
2018-02-17T11:56:27.335Z,63.45
2018-02-17T11:57:37.082Z,63.17
2018-02-17T11:58:46.963Z,63.07
2018-02-17T11:59:57.049Z,63.83
2018-02-17T12:01:06.002Z,63.35
2018-02-17T12:02:15.806Z,61.64
2018-02-17T12:03:25.255Z,62.02
2018-02-17T12:04:34.841Z,62.4
2018-02-17T12:05:44.859Z,61.83
2018-02-17T12:06:54.449Z,61.83
2018-02-17T12:08:04.625Z,61.73
2018-02-17T12:09:14.448Z,61.64
2018-02-17T12:10:23.571Z,61.25
2018-02-17T12:11:33.401Z,61.54
2018-02-17T12:12:43.518Z,61.25
2018-02-17T12:13:53.535Z,60.69
2018-02-17T12:15:03.035Z,61.45
2018-02-17T12:16:12.440Z,60.3
2018-02-17T12:17:21.905Z,60.88
2018-02-17T12:18:31.129Z,61.16
2018-02-17T12:19:40.888Z,60.88
2018-02-17T12:20:50.377Z,60.49
2018-02-17T12:21:59.614Z,60.69
2018-02-17T12:23:08.299Z,60.11
2018-02-17T12:24:17.250Z,60.3
2018-02-17T12:25:26.469Z,60.78
2018-02-17T12:26:35.953Z,60.78
2018-02-17T12:27:45.756Z,60.69
2018-02-17T12:28:55.508Z,61.35
2018-02-17T12:30:04.456Z,61.35
2018-02-17T12:31:14.211Z,61.45
2018-02-17T12:32:23.421Z,61.45
2018-02-17T12:33:32.658Z,61.45
2018-02-17T12:34:42.227Z,61.45
2018-02-17T12:35:51.709Z,61.07
2018-02-17T12:37:01.756Z,61.54
2018-02-17T12:38:11.515Z,61.45
2018-02-17T12:39:21.535Z,61.45
2018-02-17T12:40:31.028Z,61.35
2018-02-17T12:41:41.127Z,61.25
2018-02-17T12:42:50.334Z,60.69
2018-02-17T12:44:00.152Z,61.54
2018-02-17T12:45:09.373Z,61.25
2018-02-17T12:46:18.872Z,60.69
2018-02-17T12:47:28.886Z,59.54
2018-02-17T12:48:38.651Z,59.35
2018-02-17T12:49:48.431Z,59.61
2018-02-17T12:50:58.315Z,59.8
2018-02-17T12:52:08.343Z,58.56
2018-02-17T12:53:17.832Z,59.89
2018-02-17T12:54:27.822Z,60.75
2018-02-17T12:55:37.888Z,61.9
2018-02-17T12:56:47.646Z,61.42
2018-02-17T12:57:57.424Z,60.49
2018-02-17T12:59:07.182Z,60.11
2018-02-17T13:00:16.676Z,59.35
2018-02-17T13:01:26.439Z,59.54
2018-02-17T13:02:36.204Z,58.78
2018-02-17T13:03:45.957Z,58.5
2018-02-17T13:04:55.441Z,59.06
2018-02-17T13:06:05.475Z,58.59
2018-02-17T13:07:15.215Z,58.59
2018-02-17T13:08:24.973Z,59.35
2018-02-17T13:09:34.458Z,59.45
2018-02-17T13:10:44.484Z,59.35
2018-02-17T13:11:54.244Z,58.4
2018-02-17T13:13:03.199Z,58.59
2018-02-17T13:14:12.695Z,58.3
2018-02-17T13:15:22.461Z,58.14
2018-02-17T13:16:32.221Z,57.64
2018-02-17T13:17:41.972Z,57.76
2018-02-17T13:18:51.193Z,57.76
2018-02-17T13:20:00.689Z,57.67
2018-02-17T13:21:10.447Z,57.48
2018-02-17T13:22:20.488Z,57.19
2018-02-17T13:23:29.981Z,57.28
2018-02-17T13:24:39.736Z,56.9
2018-02-17T13:25:49.483Z,56.04
2018-02-17T13:26:59.254Z,55.69
2018-02-17T13:28:09.293Z,56.26
2018-02-17T13:29:19.095Z,56.84
2018-02-17T13:30:28.855Z,56.84
2018-02-17T13:31:38.635Z,56.36
2018-02-17T13:32:47.865Z,55.79
2018-02-17T13:33:57.083Z,56.07
2018-02-17T13:35:06.341Z,55.6
2018-02-17T13:36:16.134Z,55.41
2018-02-17T13:37:26.245Z,55.5
2018-02-17T13:38:36.280Z,55.21
2018-02-17T13:39:46.031Z,55.41
2018-02-17T13:40:55.818Z,55.31
2018-02-17T13:42:05.371Z,56.07
2018-02-17T13:43:14.846Z,56.55
2018-02-17T13:44:24.870Z,56.07
2018-02-17T13:45:34.891Z,55.66
2018-02-17T13:46:44.926Z,56.43
2018-02-17T13:47:55.031Z,56.81
2018-02-17T13:49:04.543Z,57.19
2018-02-17T13:50:13.766Z,57.09
2018-02-17T13:51:23.264Z,57.76
2018-02-17T13:52:33.307Z,57.67
2018-02-17T13:53:43.341Z,58.04
2018-02-17T13:54:53.551Z,57.86
2018-02-17T13:56:03.096Z,58.33
2018-02-17T13:57:12.662Z,58.81
2018-02-17T13:58:22.534Z,58.33
2018-02-17T13:59:32.381Z,58.43
2018-02-17T14:00:42.168Z,57.76
2018-02-17T14:01:51.383Z,56.81
2018-02-17T14:03:01.173Z,57.09
2018-02-17T14:04:10.948Z,56.33
2018-02-17T14:05:20.762Z,56.33
2018-02-17T14:06:30.856Z,56.9
2018-02-17T14:07:40.919Z,57.09
2018-02-17T14:08:50.434Z,56.33
2018-02-17T14:10:00.231Z,56.24
2018-02-17T14:11:10.292Z,56.71
2018-02-17T14:12:20.114Z,56.14
2018-02-17T14:13:29.681Z,56.14
2018-02-17T14:14:39.182Z,56.9
2018-02-17T14:15:48.829Z,56.81
2018-02-17T14:16:58.947Z,57.19
2018-02-17T14:18:08.731Z,57.19
2018-02-17T14:19:18.573Z,57.67
2018-02-17T14:20:28.350Z,57.67
2018-02-17T14:21:38.408Z,57
2018-02-17T14:22:48.542Z,56.71
2018-02-17T14:23:58.362Z,56.14
2018-02-17T14:25:07.568Z,55.85
2018-02-17T14:26:17.581Z,56.14
2018-02-17T14:27:27.303Z,56.24
2018-02-17T14:28:37.285Z,56.3
2018-02-17T14:29:47.617Z,56.11
2018-02-17T14:30:57.805Z,56.3
2018-02-17T14:32:07.081Z,56.3
2018-02-17T14:33:16.866Z,56.3
2018-02-17T14:34:26.362Z,55.63
2018-02-17T14:35:36.188Z,56.11
2018-02-17T14:36:45.672Z,56.11
2018-02-17T14:37:55.489Z,56.59
2018-02-17T14:39:05.269Z,56.59
2018-02-17T14:40:14.773Z,56.3
2018-02-17T14:41:24.577Z,56.59
2018-02-17T14:42:34.765Z,56.97
2018-02-17T14:43:44.550Z,56.78
2018-02-17T14:44:53.766Z,56.4
2018-02-17T14:46:03.255Z,56.3
2018-02-17T14:47:13.292Z,56.3
2018-02-17T14:48:23.101Z,57.16
2018-02-17T14:49:32.860Z,56.21
2018-02-17T14:50:42.384Z,56.3
2018-02-17T14:51:51.353Z,56.87
2018-02-17T14:53:01.152Z,57.35
2018-02-17T14:54:10.658Z,56.3
2018-02-17T14:55:20.997Z,56.85
2018-02-17T14:56:31.056Z,57.32
2018-02-17T14:57:40.862Z,57.32
2018-02-17T14:58:50.355Z,57.32
2018-02-17T14:59:59.863Z,57.42